createdAt,value
2022-08-28T00:00:09.573Z,24.68
2022-08-28T00:00:19.691Z,24.68
2022-08-28T00:00:29.809Z,24.67
2022-08-28T00:00:39.920Z,24.67
2022-08-28T00:00:50.042Z,24.67
2022-08-28T00:01:00.162Z,24.67
2022-08-28T00:01:10.277Z,24.68
2022-08-28T00:01:20.397Z,24.70
2022-08-28T00:01:30.517Z,24.71
2022-08-28T00:01:40.634Z,24.74
2022-08-28T00:01:50.754Z,24.75
2022-08-28T00:02:00.874Z,24.77
2022-08-28T00:02:10.990Z,24.79
2022-08-28T00:02:21.174Z,24.82
2022-08-28T00:02:31.203Z,24.85
2022-08-28T00:02:41.287Z,24.86
2022-08-28T00:02:51.399Z,24.89
2022-08-28T00:03:01.384Z,24.92
2022-08-28T00:03:11.453Z,24.95
2022-08-28T00:03:21.505Z,24.96
2022-08-28T00:03:31.623Z,25.00
2022-08-28T00:03:41.641Z,25.01
2022-08-28T00:03:51.760Z,25.03
2022-08-28T00:04:01.877Z,25.06
2022-08-28T00:04:11.993Z,25.08
2022-08-28T00:04:22.139Z,25.10
2022-08-28T00:04:32.288Z,25.12
2022-08-28T00:04:42.295Z,25.14
2022-08-28T00:04:52.340Z,25.15
2022-08-28T00:05:02.404Z,25.17
2022-08-28T00:05:12.422Z,25.19
2022-08-28T00:05:22.422Z,25.20
2022-08-28T00:05:32.547Z,25.21
2022-08-28T00:05:42.543Z,25.24
2022-08-28T00:05:52.620Z,25.24
2022-08-28T00:06:02.616Z,25.25
2022-08-28T00:06:12.867Z,25.27
2022-08-28T00:06:22.984Z,25.27
2022-08-28T00:06:33.102Z,25.28
2022-08-28T00:06:43.233Z,25.30
2022-08-28T00:06:53.356Z,25.31
2022-08-28T00:07:03.476Z,25.32
2022-08-28T00:07:13.591Z,25.33
2022-08-28T00:07:23.705Z,25.35
2022-08-28T00:07:33.830Z,25.35
2022-08-28T00:07:47.613Z,25.37
2022-08-28T00:07:54.071Z,25.34
2022-08-28T00:08:04.074Z,25.36
2022-08-28T00:08:14.371Z,25.37
2022-08-28T00:08:24.285Z,25.38
2022-08-28T00:08:34.412Z,25.39
2022-08-28T00:08:44.528Z,25.39
2022-08-28T00:08:54.640Z,25.39
2022-08-28T00:09:04.758Z,25.41
2022-08-28T00:09:14.875Z,25.41
2022-08-28T00:09:24.988Z,25.42
2022-08-28T00:09:35.108Z,25.42
2022-08-28T00:09:45.106Z,25.42
2022-08-28T00:09:55.227Z,25.42
2022-08-28T00:10:05.341Z,25.43
2022-08-28T00:10:15.457Z,25.43
2022-08-28T00:10:25.571Z,25.43
2022-08-28T00:10:35.697Z,25.44
2022-08-28T00:10:45.808Z,25.44
2022-08-28T00:10:55.927Z,25.43
2022-08-28T00:11:05.926Z,25.45
2022-08-28T00:11:16.041Z,25.45
2022-08-28T00:11:26.156Z,25.45
2022-08-28T00:11:36.276Z,25.45
2022-08-28T00:11:46.391Z,25.45
2022-08-28T00:11:56.517Z,25.46
2022-08-28T00:12:06.630Z,25.46
2022-08-28T00:12:16.751Z,25.47
2022-08-28T00:12:26.748Z,25.47
2022-08-28T00:12:36.994Z,25.47
2022-08-28T00:12:47.003Z,25.47
2022-08-28T00:12:57.118Z,25.48
2022-08-28T00:13:07.365Z,25.47
2022-08-28T00:13:17.484Z,25.47
2022-08-28T00:13:27.481Z,25.48
2022-08-28T00:13:37.729Z,25.47
2022-08-28T00:13:47.849Z,25.47
2022-08-28T00:13:57.966Z,25.48
2022-08-28T00:14:08.095Z,25.48
2022-08-28T00:14:18.221Z,25.50
2022-08-28T00:14:28.220Z,25.50
2022-08-28T00:14:38.467Z,25.51
2022-08-28T00:14:48.580Z,25.52
2022-08-28T00:14:58.698Z,25.52
2022-08-28T00:15:09.716Z,25.53
2022-08-28T00:15:18.869Z,25.50
2022-08-28T00:15:28.870Z,25.52
2022-08-28T00:15:38.996Z,25.53
2022-08-28T00:15:49.081Z,25.53
2022-08-28T00:15:59.255Z,25.54
2022-08-28T00:16:09.282Z,25.54
2022-08-28T00:16:19.285Z,25.55
2022-08-28T00:16:29.334Z,25.56
2022-08-28T00:16:39.324Z,25.56
2022-08-28T00:16:49.318Z,25.56
2022-08-28T00:16:59.449Z,25.57
2022-08-28T00:17:09.441Z,25.58
2022-08-28T00:17:19.560Z,25.59
2022-08-28T00:17:29.556Z,25.60
2022-08-28T00:17:39.678Z,25.60
2022-08-28T00:17:49.790Z,25.60
2022-08-28T00:17:59.909Z,25.61
2022-08-28T00:18:10.062Z,25.63
2022-08-28T00:18:20.029Z,25.63
2022-08-28T00:18:30.027Z,25.64
2022-08-28T00:18:40.408Z,25.63
2022-08-28T00:18:50.522Z,25.64
2022-08-28T00:19:00.636Z,25.65
2022-08-28T00:19:10.755Z,25.64
2022-08-28T00:19:20.882Z,25.66
2022-08-28T00:19:33.472Z,25.65
2022-08-28T00:19:41.018Z,25.60
2022-08-28T00:19:51.177Z,25.63
2022-08-28T00:20:01.167Z,25.64
2022-08-28T00:20:11.281Z,25.65
2022-08-28T00:20:21.540Z,25.66
2022-08-28T00:20:31.663Z,25.66
2022-08-28T00:20:41.663Z,25.66
2022-08-28T00:20:51.932Z,25.67
2022-08-28T00:21:02.025Z,25.67
2022-08-28T00:21:12.135Z,25.67
2022-08-28T00:21:22.265Z,25.66
2022-08-28T00:21:32.380Z,25.65
2022-08-28T00:21:42.380Z,25.65
2022-08-28T00:21:52.632Z,25.65
2022-08-28T00:22:02.754Z,25.64
2022-08-28T00:22:12.751Z,25.64
2022-08-28T00:22:22.865Z,25.60
2022-08-28T00:22:32.989Z,25.61
2022-08-28T00:22:43.102Z,25.62
2022-08-28T00:22:53.223Z,25.62
2022-08-28T00:23:03.342Z,25.62
2022-08-28T00:23:13.462Z,25.60
2022-08-28T00:23:23.583Z,25.61
2022-08-28T00:23:43.143Z,25.61
2022-08-28T00:23:43.687Z,25.55
2022-08-28T00:23:53.804Z,25.58
2022-08-28T00:24:03.922Z,25.58
2022-08-28T00:24:14.038Z,25.59
2022-08-28T00:24:24.157Z,25.60
2022-08-28T00:24:34.275Z,25.60
2022-08-28T00:24:44.273Z,25.61
2022-08-28T00:24:55.080Z,25.61
2022-08-28T00:25:04.442Z,25.59
2022-08-28T00:25:14.564Z,25.59
2022-08-28T00:25:24.572Z,25.59
2022-08-28T00:25:34.690Z,25.59
2022-08-28T00:25:44.826Z,25.60
2022-08-28T00:25:54.945Z,25.60
2022-08-28T00:26:04.943Z,25.60
2022-08-28T00:26:15.016Z,25.59
2022-08-28T00:26:25.130Z,25.60
2022-08-28T00:26:35.247Z,25.59
2022-08-28T00:26:45.360Z,25.60
2022-08-28T00:26:55.480Z,25.60
2022-08-28T00:27:05.602Z,25.59
2022-08-28T00:27:15.719Z,25.60
2022-08-28T00:27:25.814Z,25.57
2022-08-28T00:27:35.931Z,25.57
2022-08-28T00:27:46.304Z,25.58
2022-08-28T00:27:56.422Z,25.59
2022-08-28T00:28:08.851Z,25.58
2022-08-28T00:28:23.581Z,25.56
2022-08-28T00:28:26.758Z,25.52
2022-08-28T00:28:36.879Z,25.53
2022-08-28T00:28:46.882Z,25.54
2022-08-28T00:28:56.996Z,25.54
2022-08-28T00:29:07.119Z,25.55
2022-08-28T00:29:17.111Z,25.55
2022-08-28T00:29:27.237Z,25.55
2022-08-28T00:29:37.360Z,25.55
2022-08-28T00:29:47.370Z,25.55
2022-08-28T00:29:57.485Z,25.55
2022-08-28T00:30:07.600Z,25.55
2022-08-28T00:30:17.726Z,25.57
2022-08-28T00:30:27.723Z,25.56
2022-08-28T00:30:37.855Z,25.56
2022-08-28T00:30:47.982Z,25.57
2022-08-28T00:30:58.100Z,25.57
2022-08-28T00:31:08.136Z,25.57
2022-08-28T00:31:18.186Z,25.58
2022-08-28T00:31:28.253Z,25.58
2022-08-28T00:31:38.285Z,25.59
2022-08-28T00:31:48.270Z,25.59
2022-08-28T00:31:58.267Z,25.59
2022-08-28T00:32:08.381Z,25.59
2022-08-28T00:32:18.499Z,25.59
2022-08-28T00:32:28.624Z,25.59
2022-08-28T00:32:38.788Z,25.59
2022-08-28T00:32:48.775Z,25.59
2022-08-28T00:32:59.025Z,25.59
2022-08-28T00:33:09.143Z,25.59
2022-08-28T00:33:19.249Z,25.59
2022-08-28T00:33:29.367Z,25.58
2022-08-28T00:33:39.484Z,25.57
2022-08-28T00:33:49.597Z,25.57
2022-08-28T00:33:59.720Z,25.57
2022-08-28T00:34:09.836Z,25.56
2022-08-28T00:34:19.953Z,25.56
2022-08-28T00:34:33.435Z,25.50
2022-08-28T00:34:40.317Z,25.49
2022-08-28T00:34:50.315Z,25.50
2022-08-28T00:35:00.435Z,25.52
2022-08-28T00:35:10.688Z,25.52
2022-08-28T00:35:20.690Z,25.53
2022-08-28T00:35:30.684Z,25.52
2022-08-28T00:35:41.227Z,25.51
2022-08-28T00:35:51.097Z,25.51
2022-08-28T00:36:01.116Z,25.51
2022-08-28T00:36:11.492Z,25.52
2022-08-28T00:36:21.601Z,25.52
2022-08-28T00:36:31.724Z,25.52
2022-08-28T00:36:41.848Z,25.52
2022-08-28T00:36:51.848Z,25.53
2022-08-28T00:37:01.951Z,25.53
2022-08-28T00:37:12.195Z,25.54
2022-08-28T00:37:24.608Z,25.53
2022-08-28T00:37:32.398Z,25.53
2022-08-28T00:37:42.395Z,25.53
2022-08-28T00:37:52.639Z,25.54
2022-08-28T00:38:02.771Z,25.55
2022-08-28T00:38:13.157Z,25.55
2022-08-28T00:38:22.925Z,25.54
2022-08-28T00:38:33.025Z,25.52
2022-08-28T00:38:43.139Z,25.54
2022-08-28T00:38:53.513Z,25.54
2022-08-28T00:39:03.626Z,25.54
2022-08-28T00:39:13.749Z,25.55
2022-08-28T00:39:23.756Z,25.53
2022-08-28T00:39:33.869Z,25.54
2022-08-28T00:39:44.249Z,25.55
2022-08-28T00:39:54.299Z,25.56
2022-08-28T00:40:04.334Z,25.56
2022-08-28T00:40:14.461Z,25.56
2022-08-28T00:40:30.428Z,25.57
2022-08-28T00:40:34.532Z,25.50
2022-08-28T00:40:44.706Z,25.53
2022-08-28T00:40:54.645Z,25.55
2022-08-28T00:41:04.944Z,25.56
2022-08-28T00:41:15.073Z,25.56
2022-08-28T00:41:27.522Z,25.58
2022-08-28T00:41:34.882Z,25.55
2022-08-28T00:41:44.903Z,25.56
2022-08-28T00:41:56.728Z,25.56
2022-08-28T00:42:05.149Z,25.54
2022-08-28T00:42:15.143Z,25.55
2022-08-28T00:42:25.258Z,25.57
2022-08-28T00:42:35.374Z,25.57
2022-08-28T00:42:45.493Z,25.58
2022-08-28T00:42:55.611Z,25.57
2022-08-28T00:43:05.736Z,25.57
2022-08-28T00:43:15.851Z,25.57
2022-08-28T00:43:25.965Z,25.57
2022-08-28T00:43:35.969Z,25.56
2022-08-28T00:43:46.084Z,25.56
2022-08-28T00:43:56.221Z,25.57
2022-08-28T00:44:06.220Z,25.57
2022-08-28T00:44:16.346Z,25.57
2022-08-28T00:44:26.458Z,25.57
2022-08-28T00:44:36.576Z,25.56
2022-08-28T00:44:46.691Z,25.56
2022-08-28T00:44:56.804Z,25.56
2022-08-28T00:45:06.923Z,25.56
2022-08-28T00:45:17.048Z,25.56
2022-08-28T00:45:27.050Z,25.56
2022-08-28T00:45:39.897Z,25.57
2022-08-28T00:45:47.333Z,25.55
2022-08-28T00:45:57.321Z,25.55
2022-08-28T00:46:07.485Z,25.56
2022-08-28T00:46:17.552Z,25.57
2022-08-28T00:46:27.594Z,25.56
2022-08-28T00:46:37.659Z,25.57
2022-08-28T00:46:47.854Z,25.57
2022-08-28T00:46:57.738Z,25.57
2022-08-28T00:47:07.755Z,25.58
2022-08-28T00:47:17.722Z,25.59
2022-08-28T00:47:27.845Z,25.59
2022-08-28T00:47:37.848Z,25.59
2022-08-28T00:47:47.968Z,25.60
2022-08-28T00:47:58.086Z,25.60
2022-08-28T00:48:08.374Z,25.60
2022-08-28T00:48:18.245Z,25.61
2022-08-28T00:48:28.369Z,25.60
2022-08-28T00:48:38.480Z,25.60
2022-08-28T00:48:48.606Z,25.60
2022-08-28T00:48:58.609Z,25.62
2022-08-28T00:49:08.727Z,25.62
2022-08-28T00:49:18.840Z,25.62
2022-08-28T00:49:28.960Z,25.63
2022-08-28T00:49:39.078Z,25.62
2022-08-28T00:49:49.202Z,25.63
2022-08-28T00:49:59.320Z,25.63
2022-08-28T00:50:09.451Z,25.63
2022-08-28T00:50:19.552Z,25.64
2022-08-28T00:50:29.676Z,25.64
2022-08-28T00:50:39.880Z,25.64
2022-08-28T00:50:49.916Z,25.64
2022-08-28T00:51:00.826Z,25.65
2022-08-28T00:51:10.159Z,25.65
2022-08-28T00:51:20.160Z,25.64
2022-08-28T00:51:30.410Z,25.66
2022-08-28T00:51:40.406Z,25.66
2022-08-28T00:51:50.523Z,25.66
2022-08-28T00:52:00.780Z,25.66
2022-08-28T00:52:11.908Z,25.66
2022-08-28T00:52:21.003Z,25.65
2022-08-28T00:52:31.253Z,25.65
2022-08-28T00:52:41.249Z,25.64
2022-08-28T00:52:51.367Z,25.64
2022-08-28T00:53:01.614Z,25.65
2022-08-28T00:53:11.745Z,25.65
2022-08-28T00:53:23.494Z,25.65
2022-08-28T00:53:32.825Z,25.58
2022-08-28T00:53:41.891Z,25.59
2022-08-28T00:53:53.194Z,25.61
2022-08-28T00:54:05.548Z,25.59
2022-08-28T00:54:12.105Z,25.55
2022-08-28T00:54:22.101Z,25.56
2022-08-28T00:54:32.223Z,25.57
2022-08-28T00:54:42.220Z,25.57
2022-08-28T00:54:58.871Z,25.52
2022-08-28T00:55:02.339Z,25.48
2022-08-28T00:55:12.465Z,25.50
2022-08-28T00:55:22.469Z,25.51
2022-08-28T00:55:32.593Z,25.52
2022-08-28T00:55:42.605Z,25.52
2022-08-28T00:55:52.728Z,25.52
2022-08-28T00:56:02.720Z,25.52
2022-08-28T00:56:13.301Z,25.50
2022-08-28T00:56:22.957Z,25.50
2022-08-28T00:56:33.074Z,25.51
2022-08-28T00:56:43.186Z,25.51
2022-08-28T00:56:53.303Z,25.51
2022-08-28T00:57:03.423Z,25.51
2022-08-28T00:57:13.539Z,25.52
2022-08-28T00:57:26.961Z,25.52
2022-08-28T00:57:33.699Z,25.48
2022-08-28T00:57:43.703Z,25.50
2022-08-28T00:57:53.698Z,25.50
2022-08-28T00:58:04.069Z,25.51
2022-08-28T00:58:14.526Z,25.51
2022-08-28T00:58:24.288Z,25.51
2022-08-28T00:58:34.407Z,25.51
2022-08-28T00:58:44.532Z,25.52
2022-08-28T00:58:54.646Z,25.52
2022-08-28T00:59:04.765Z,25.53
2022-08-28T00:59:14.881Z,25.53
2022-08-28T00:59:24.876Z,25.54
2022-08-28T00:59:35.125Z,25.55
2022-08-28T00:59:45.126Z,25.55
2022-08-28T00:59:55.225Z,25.54
2022-08-28T01:00:05.223Z,25.54
2022-08-28T01:00:15.344Z,25.54
2022-08-28T01:00:25.461Z,25.56
2022-08-28T01:00:35.576Z,25.56
2022-08-28T01:00:45.696Z,25.56
2022-08-28T01:00:55.831Z,25.57
2022-08-28T01:01:05.818Z,25.57
2022-08-28T01:01:15.991Z,25.58
2022-08-28T01:01:26.133Z,25.57
2022-08-28T01:01:36.228Z,25.58
2022-08-28T01:01:46.320Z,25.58
2022-08-28T01:01:56.437Z,25.58
2022-08-28T01:02:06.558Z,25.57
2022-08-28T01:02:16.616Z,25.57
2022-08-28T01:02:26.771Z,25.58
2022-08-28T01:02:36.834Z,25.58
2022-08-28T01:02:47.114Z,25.58
2022-08-28T01:02:57.129Z,25.59
2022-08-28T01:03:07.265Z,25.59
2022-08-28T01:03:17.190Z,25.59
2022-08-28T01:03:27.199Z,25.59
2022-08-28T01:03:37.194Z,25.59
2022-08-28T01:03:47.325Z,25.58
2022-08-28T01:03:57.448Z,25.59
2022-08-28T01:04:07.566Z,25.59
2022-08-28T01:04:17.681Z,25.59
2022-08-28T01:04:27.803Z,25.58
2022-08-28T01:04:37.799Z,25.58
2022-08-28T01:04:47.917Z,25.59
2022-08-28T01:04:57.919Z,25.58
2022-08-28T01:05:08.035Z,25.58
2022-08-28T01:05:18.159Z,25.57
2022-08-28T01:05:28.281Z,25.57
2022-08-28T01:05:38.398Z,25.56
2022-08-28T01:05:48.514Z,25.56
2022-08-28T01:05:58.636Z,25.55
2022-08-28T01:06:08.752Z,25.55
2022-08-28T01:06:18.761Z,25.55
2022-08-28T01:06:29.006Z,25.55
2022-08-28T01:06:39.017Z,25.53
2022-08-28T01:06:49.007Z,25.53
2022-08-28T01:06:59.383Z,25.52
2022-08-28T01:07:09.497Z,25.51
2022-08-28T01:07:19.612Z,25.50
2022-08-28T01:07:29.732Z,25.50
2022-08-28T01:07:39.842Z,25.50
2022-08-28T01:07:49.839Z,25.49
2022-08-28T01:08:00.099Z,25.49
2022-08-28T01:08:10.211Z,25.49
2022-08-28T01:08:20.233Z,25.48
2022-08-28T01:08:30.478Z,25.49
2022-08-28T01:08:40.486Z,25.49
2022-08-28T01:08:50.874Z,25.50
2022-08-28T01:09:00.885Z,25.48
2022-08-28T01:09:11.009Z,25.49
2022-08-28T01:09:21.198Z,25.49
2022-08-28T01:09:31.296Z,25.49
2022-08-28T01:09:41.295Z,25.49
2022-08-28T01:09:51.412Z,25.49
2022-08-28T01:10:01.668Z,25.50
2022-08-28T01:10:11.781Z,25.49
2022-08-28T01:10:21.806Z,25.49
2022-08-28T01:10:32.056Z,25.50
2022-08-28T01:10:42.173Z,25.50
2022-08-28T01:10:52.287Z,25.50
2022-08-28T01:11:02.406Z,25.50
2022-08-28T01:11:12.523Z,25.51
2022-08-28T01:11:22.639Z,25.51
2022-08-28T01:11:32.762Z,25.51
2022-08-28T01:11:42.883Z,25.51
2022-08-28T01:11:52.881Z,25.51
2022-08-28T01:12:03.143Z,25.51
2022-08-28T01:12:13.250Z,25.51
2022-08-28T01:12:23.250Z,25.50
2022-08-28T01:12:33.499Z,25.51
2022-08-28T01:12:43.497Z,25.50
2022-08-28T01:12:53.608Z,25.50
2022-08-28T01:13:03.858Z,25.50
2022-08-28T01:13:13.970Z,25.50
2022-08-28T01:13:24.093Z,25.51
2022-08-28T01:13:34.218Z,25.51
2022-08-28T01:13:44.216Z,25.51
2022-08-28T01:13:54.329Z,25.51
2022-08-28T01:14:04.575Z,25.52
2022-08-28T01:14:14.692Z,25.52
2022-08-28T01:14:24.815Z,25.53
2022-08-28T01:14:34.938Z,25.52
2022-08-28T01:14:45.056Z,25.53
2022-08-28T01:14:55.180Z,25.54
2022-08-28T01:15:05.299Z,25.54
2022-08-28T01:15:15.420Z,25.54
2022-08-28T01:15:25.421Z,25.54
2022-08-28T01:15:35.734Z,25.55
2022-08-28T01:15:45.783Z,25.54
2022-08-28T01:15:55.811Z,25.54
2022-08-28T01:16:05.873Z,25.53
2022-08-28T01:16:15.945Z,25.53
2022-08-28T01:16:32.975Z,25.53
2022-08-28T01:16:36.042Z,25.46
2022-08-28T01:16:46.151Z,25.49
2022-08-28T01:16:56.272Z,25.49
2022-08-28T01:17:06.387Z,25.50
2022-08-28T01:17:16.504Z,25.50
2022-08-28T01:17:26.623Z,25.51
2022-08-28T01:17:36.737Z,25.51
2022-08-28T01:17:46.816Z,25.46
2022-08-28T01:17:56.933Z,25.47
2022-08-28T01:18:08.424Z,25.48
2022-08-28T01:18:17.295Z,25.46
2022-08-28T01:18:27.455Z,25.46
2022-08-28T01:18:37.570Z,25.46
2022-08-28T01:18:47.569Z,25.46
2022-08-28T01:18:57.818Z,25.48
2022-08-28T01:19:07.933Z,25.48
2022-08-28T01:19:18.052Z,25.47
2022-08-28T01:19:28.177Z,25.49
2022-08-28T01:19:38.291Z,25.49
2022-08-28T01:19:48.403Z,25.49
2022-08-28T01:19:58.526Z,25.50
2022-08-28T01:20:08.640Z,25.50
2022-08-28T01:20:18.757Z,25.50
2022-08-28T01:20:28.877Z,25.51
2022-08-28T01:20:38.992Z,25.51
2022-08-28T01:20:48.989Z,25.51
2022-08-28T01:20:59.241Z,25.51
2022-08-28T01:21:09.362Z,25.52
2022-08-28T01:21:20.496Z,25.51
2022-08-28T01:21:29.504Z,25.50
2022-08-28T01:21:39.627Z,25.51
2022-08-28T01:21:49.747Z,25.50
2022-08-28T01:21:59.864Z,25.50
2022-08-28T01:22:10.020Z,25.49
2022-08-28T01:22:20.011Z,25.49
2022-08-28T01:22:30.954Z,25.49
2022-08-28T01:22:40.138Z,25.48
2022-08-28T01:22:50.263Z,25.48
2022-08-28T01:23:00.378Z,25.49
2022-08-28T01:23:10.494Z,25.50
2022-08-28T01:23:20.614Z,25.51
2022-08-28T01:23:30.737Z,25.50
2022-08-28T01:23:40.856Z,25.51
2022-08-28T01:23:50.882Z,25.49
2022-08-28T01:24:01.005Z,25.51
2022-08-28T01:24:11.123Z,25.51
2022-08-28T01:24:21.245Z,25.52
2022-08-28T01:24:31.249Z,25.53
2022-08-28T01:24:41.365Z,25.54
2022-08-28T01:24:51.482Z,25.54
2022-08-28T01:25:01.601Z,25.55
2022-08-28T01:25:11.716Z,25.55
2022-08-28T01:25:21.832Z,25.56
2022-08-28T01:25:31.835Z,25.55
2022-08-28T01:25:41.961Z,25.55
2022-08-28T01:25:51.951Z,25.56
2022-08-28T01:26:02.086Z,25.56
2022-08-28T01:26:12.091Z,25.52
2022-08-28T01:26:22.206Z,25.52
2022-08-28T01:26:32.322Z,25.54
2022-08-28T01:26:42.440Z,25.55
2022-08-28T01:26:52.557Z,25.55
2022-08-28T01:27:02.678Z,25.56
2022-08-28T01:27:12.790Z,25.55
2022-08-28T01:27:23.548Z,25.55
2022-08-28T01:27:32.931Z,25.53
2022-08-28T01:27:43.058Z,25.54
2022-08-28T01:27:53.179Z,25.54
2022-08-28T01:28:03.306Z,25.54
2022-08-28T01:28:13.533Z,25.54
2022-08-28T01:28:23.317Z,25.53
2022-08-28T01:28:33.323Z,25.53
2022-08-28T01:28:43.440Z,25.52
2022-08-28T01:28:53.699Z,25.51
2022-08-28T01:29:03.828Z,25.51
2022-08-28T01:29:13.916Z,25.51
2022-08-28T01:29:24.163Z,25.49
2022-08-28T01:29:34.158Z,25.49
2022-08-28T01:29:47.830Z,25.50
2022-08-28T01:29:54.586Z,25.46
2022-08-28T01:30:04.705Z,25.47
2022-08-28T01:30:14.697Z,25.47
2022-08-28T01:30:24.945Z,25.48
2022-08-28T01:30:35.061Z,25.49
2022-08-28T01:30:45.222Z,25.49
2022-08-28T01:30:55.488Z,25.50
2022-08-28T01:31:05.561Z,25.50
2022-08-28T01:31:15.562Z,25.51
2022-08-28T01:31:25.841Z,25.50
2022-08-28T01:31:35.937Z,25.51
2022-08-28T01:31:45.955Z,25.51
2022-08-28T01:31:56.343Z,25.52
2022-08-28T01:32:06.444Z,25.52
2022-08-28T01:32:16.487Z,25.51
2022-08-28T01:32:26.612Z,25.51
2022-08-28T01:32:36.729Z,25.51
2022-08-28T01:32:46.847Z,25.52
2022-08-28T01:32:56.960Z,25.53
2022-08-28T01:33:07.083Z,25.53
2022-08-28T01:33:17.079Z,25.53
2022-08-28T01:33:28.201Z,25.53
2022-08-28T01:33:37.201Z,25.52
2022-08-28T01:33:47.342Z,25.46
2022-08-28T01:33:57.339Z,25.48
2022-08-28T01:34:07.464Z,25.50
2022-08-28T01:34:17.578Z,25.51
2022-08-28T01:34:27.694Z,25.52
2022-08-28T01:34:37.694Z,25.53
2022-08-28T01:34:47.765Z,25.53
2022-08-28T01:34:57.878Z,25.54
2022-08-28T01:35:07.998Z,25.54
2022-08-28T01:35:18.113Z,25.53
2022-08-28T01:35:28.229Z,25.54
2022-08-28T01:35:38.345Z,25.53
2022-08-28T01:35:48.462Z,25.54
2022-08-28T01:35:58.456Z,25.55
2022-08-28T01:36:08.585Z,25.55
2022-08-28T01:36:18.582Z,25.55
2022-08-28T01:36:28.698Z,25.56
2022-08-28T01:36:38.831Z,25.55
2022-08-28T01:36:48.949Z,25.55
2022-08-28T01:36:59.063Z,25.56
2022-08-28T01:37:09.106Z,25.51
2022-08-28T01:37:19.267Z,25.54
2022-08-28T01:37:29.249Z,25.54
2022-08-28T01:37:39.361Z,25.55
2022-08-28T01:37:49.622Z,25.54
2022-08-28T01:37:59.723Z,25.55
2022-08-28T01:38:09.852Z,25.56
2022-08-28T01:38:21.923Z,25.56
2022-08-28T01:38:30.085Z,25.51
2022-08-28T01:38:40.202Z,25.53
2022-08-28T01:38:50.321Z,25.53
2022-08-28T01:39:00.442Z,25.54
2022-08-28T01:39:10.554Z,25.54
2022-08-28T01:39:20.689Z,25.55
2022-08-28T01:39:30.796Z,25.56
2022-08-28T01:39:40.910Z,25.55
2022-08-28T01:39:51.038Z,25.55
2022-08-28T01:40:01.101Z,25.56
2022-08-28T01:40:11.223Z,25.55
2022-08-28T01:40:21.258Z,25.55
2022-08-28T01:40:31.392Z,25.55
2022-08-28T01:40:41.396Z,25.54
2022-08-28T01:40:51.555Z,25.54
2022-08-28T01:41:01.550Z,25.54
2022-08-28T01:41:11.665Z,25.54
2022-08-28T01:41:21.915Z,25.54
2022-08-28T01:41:32.036Z,25.53
2022-08-28T01:41:42.149Z,25.52
2022-08-28T01:41:52.269Z,25.53
2022-08-28T01:42:02.384Z,25.53
2022-08-28T01:42:12.503Z,25.54
2022-08-28T01:42:22.632Z,25.53
2022-08-28T01:42:32.757Z,25.53
2022-08-28T01:42:42.863Z,25.53
2022-08-28T01:42:52.982Z,25.53
2022-08-28T01:43:03.099Z,25.53
2022-08-28T01:43:13.236Z,25.53
2022-08-28T01:43:23.366Z,25.51
2022-08-28T01:43:33.489Z,25.51
2022-08-28T01:43:43.478Z,25.51
2022-08-28T01:43:53.735Z,25.51
2022-08-28T01:44:03.731Z,25.50
2022-08-28T01:44:13.855Z,25.50
2022-08-28T01:44:24.132Z,25.50
2022-08-28T01:44:34.251Z,25.50
2022-08-28T01:44:44.246Z,25.48
2022-08-28T01:44:54.501Z,25.48
2022-08-28T01:45:04.609Z,25.47
2022-08-28T01:45:14.725Z,25.46
2022-08-28T01:45:24.844Z,25.47
2022-08-28T01:45:34.962Z,25.46
2022-08-28T01:45:45.078Z,25.46
2022-08-28T01:45:55.259Z,25.45
2022-08-28T01:46:05.306Z,25.46
2022-08-28T01:46:15.398Z,25.45
2022-08-28T01:46:25.503Z,25.44
2022-08-28T01:46:35.427Z,25.44
2022-08-28T01:46:45.443Z,25.45
2022-08-28T01:46:55.452Z,25.45
2022-08-28T01:47:05.577Z,25.45
2022-08-28T01:47:15.701Z,25.44
2022-08-28T01:47:25.691Z,25.44
2022-08-28T01:47:35.939Z,25.44
2022-08-28T01:47:46.058Z,25.43
2022-08-28T01:47:56.173Z,25.43
2022-08-28T01:48:06.300Z,25.43
2022-08-28T01:48:16.421Z,25.44
2022-08-28T01:48:26.544Z,25.42
2022-08-28T01:48:36.660Z,25.42
2022-08-28T01:48:46.775Z,25.42
2022-08-28T01:48:56.788Z,25.41
2022-08-28T01:49:07.035Z,25.41
2022-08-28T01:49:17.148Z,25.42
2022-08-28T01:49:27.266Z,25.42
2022-08-28T01:49:37.395Z,25.42
2022-08-28T01:49:47.513Z,25.42
2022-08-28T01:49:57.628Z,25.41
2022-08-28T01:50:07.759Z,25.41
2022-08-28T01:50:17.752Z,25.42
2022-08-28T01:50:27.869Z,25.42
2022-08-28T01:50:38.115Z,25.42
2022-08-28T01:50:48.113Z,25.42
2022-08-28T01:50:58.230Z,25.42
2022-08-28T01:51:08.489Z,25.43
2022-08-28T01:51:21.549Z,25.42
2022-08-28T01:51:28.604Z,25.37
2022-08-28T01:51:38.604Z,25.33
2022-08-28T01:51:48.720Z,25.36
2022-08-28T01:51:58.715Z,25.35
2022-08-28T01:52:08.751Z,25.37
2022-08-28T01:52:18.881Z,25.36
2022-08-28T01:52:28.880Z,25.32
2022-08-28T01:52:39.008Z,25.35
2022-08-28T01:52:49.002Z,25.36
2022-08-28T01:52:58.999Z,25.37
2022-08-28T01:53:12.485Z,25.38
2022-08-28T01:53:19.141Z,25.35
2022-08-28T01:53:33.032Z,25.33
2022-08-28T01:53:39.262Z,25.30
2022-08-28T01:53:49.384Z,25.34
2022-08-28T01:53:59.495Z,25.36
2022-08-28T01:54:09.827Z,25.36
2022-08-28T01:54:19.661Z,25.37
2022-08-28T01:54:29.789Z,25.38
2022-08-28T01:54:39.910Z,25.38
2022-08-28T01:54:50.013Z,25.38
2022-08-28T01:55:00.130Z,25.39
2022-08-28T01:55:10.249Z,25.39
2022-08-28T01:55:21.607Z,25.40
2022-08-28T01:55:30.315Z,25.40
2022-08-28T01:55:40.456Z,25.41
2022-08-28T01:55:50.556Z,25.41
2022-08-28T01:56:00.657Z,25.42
2022-08-28T01:56:10.781Z,25.42
2022-08-28T01:56:20.897Z,25.41
2022-08-28T01:56:31.017Z,25.42
2022-08-28T01:56:41.138Z,25.43
2022-08-28T01:56:51.260Z,25.43
2022-08-28T01:57:01.260Z,25.43
2022-08-28T01:57:11.522Z,25.43
2022-08-28T01:57:21.511Z,25.43
2022-08-28T01:57:31.516Z,25.43
2022-08-28T01:57:41.894Z,25.43
2022-08-28T01:57:52.016Z,25.43
2022-08-28T01:58:02.012Z,25.44
2022-08-28T01:58:12.519Z,25.44
2022-08-28T01:58:22.271Z,25.44
2022-08-28T01:58:36.184Z,25.44
2022-08-28T01:58:42.519Z,25.37
2022-08-28T01:58:52.515Z,25.39
2022-08-28T01:59:02.633Z,25.40
2022-08-28T01:59:12.748Z,25.41
2022-08-28T01:59:22.863Z,25.41
2022-08-28T01:59:32.983Z,25.41
2022-08-28T01:59:43.099Z,25.40
2022-08-28T01:59:53.197Z,25.41
2022-08-28T02:00:03.319Z,25.41
2022-08-28T02:00:13.433Z,25.41
2022-08-28T02:00:23.550Z,25.41
2022-08-28T02:00:33.669Z,25.42
2022-08-28T02:00:43.787Z,25.42
2022-08-28T02:00:53.908Z,25.42
2022-08-28T02:01:03.903Z,25.43
2022-08-28T02:01:14.082Z,25.43
2022-08-28T02:01:24.117Z,25.44
2022-08-28T02:01:34.174Z,25.44
2022-08-28T02:01:44.316Z,25.45
2022-08-28T02:01:54.335Z,25.46
2022-08-28T02:02:04.521Z,25.46
2022-08-28T02:02:14.550Z,25.48
2022-08-28T02:02:24.666Z,25.47
2022-08-28T02:02:34.915Z,25.47
2022-08-28T02:02:45.031Z,25.48
2022-08-28T02:02:55.143Z,25.50
2022-08-28T02:03:05.265Z,25.49
2022-08-28T02:03:15.380Z,25.50
2022-08-28T02:03:25.493Z,25.50
2022-08-28T02:03:35.618Z,25.50
2022-08-28T02:03:45.802Z,25.51
2022-08-28T02:03:55.916Z,25.50
2022-08-28T02:04:06.082Z,25.49
2022-08-28T02:04:16.154Z,25.49
2022-08-28T02:04:31.688Z,25.49
2022-08-28T02:04:36.295Z,25.42
2022-08-28T02:04:48.334Z,25.45
2022-08-28T02:04:56.296Z,25.43
2022-08-28T02:05:06.290Z,25.43
2022-08-28T02:05:16.409Z,25.45
2022-08-28T02:05:26.521Z,25.45
2022-08-28T02:05:36.659Z,25.46
2022-08-28T02:05:46.775Z,25.46
2022-08-28T02:05:56.886Z,25.46
2022-08-28T02:06:07.009Z,25.46
2022-08-28T02:06:17.015Z,25.46
2022-08-28T02:06:27.125Z,25.48
2022-08-28T02:06:37.245Z,25.48
2022-08-28T02:06:47.378Z,25.48
2022-08-28T02:06:57.376Z,25.49
2022-08-28T02:07:07.370Z,25.48
2022-08-28T02:07:17.745Z,25.49
2022-08-28T02:07:27.746Z,25.50
2022-08-28T02:07:37.861Z,25.50
2022-08-28T02:07:48.105Z,25.50
2022-08-28T02:07:58.222Z,25.50
2022-08-28T02:08:08.483Z,25.50
2022-08-28T02:08:18.488Z,25.50
2022-08-28T02:08:28.504Z,25.49
2022-08-28T02:08:38.621Z,25.48
2022-08-28T02:08:48.877Z,25.48
2022-08-28T02:08:58.992Z,25.47
2022-08-28T02:09:14.561Z,25.47
2022-08-28T02:09:19.233Z,25.40
2022-08-28T02:09:29.346Z,25.42
2022-08-28T02:09:39.473Z,25.42
2022-08-28T02:09:49.468Z,25.42
2022-08-28T02:09:59.588Z,25.42
2022-08-28T02:10:09.589Z,25.41